sensor_id;sensor_type;location;lat;lon;timestamp;temperature;humidity
1700;DHT22;847;48.058;7.810;2022-11-09T00:01:40;11.60;99.00
1700;DHT22;847;48.058;7.810;2022-11-09T00:04:08;11.70;99.00
1700;DHT22;847;48.058;7.810;2022-11-09T00:06:36;11.70;99.00
1700;DHT22;847;48.058;7.810;2022-11-09T00:09:04;11.80;99.00
1700;DHT22;847;48.058;7.810;2022-11-09T00:11:31;11.80;99.00
1700;DHT22;847;48.058;7.810;2022-11-09T00:13:58;11.80;99.00
1700;DHT22;847;48.058;7.810;2022-11-09T00:16:25;11.80;99.00
1700;DHT22;847;48.058;7.810;2022-11-09T00:18:52;11.80;99.00
1700;DHT22;847;48.058;7.810;2022-11-09T00:21:21;11.80;99.00
1700;DHT22;847;48.058;7.810;2022-11-09T00:23:50;11.80;99.00
1700;DHT22;847;48.058;7.810;2022-11-09T00:26:18;11.80;99.00
1700;DHT22;847;48.058;7.810;2022-11-09T00:28:45;11.80;99.00
1700;DHT22;847;48.058;7.810;2022-11-09T00:31:14;11.80;99.00
1700;DHT22;847;48.058;7.810;2022-11-09T00:33:41;11.90;99.00
1700;DHT22;847;48.058;7.810;2022-11-09T00:36:11;11.90;99.00
1700;DHT22;847;48.058;7.810;2022-11-09T00:38:38;11.90;99.00
1700;DHT22;847;48.058;7.810;2022-11-09T00:41:10;11.90;99.00
1700;DHT22;847;48.058;7.810;2022-11-09T00:43:37;11.90;99.00
1700;DHT22;847;48.058;7.810;2022-11-09T00:46:04;11.90;99.00
1700;DHT22;847;48.058;7.810;2022-11-09T00:48:31;12.00;99.00
1700;DHT22;847;48.058;7.810;2022-11-09T00:50:58;11.90;99.00
1700;DHT22;847;48.058;7.810;2022-11-09T00:53:25;11.90;99.00
1700;DHT22;847;48.058;7.810;2022-11-09T00:55:54;12.00;99.00
1700;DHT22;847;48.058;7.810;2022-11-09T00:58:22;12.00;99.00
1700;DHT22;847;48.058;7.810;2022-11-09T01:00:49;12.00;99.00
1700;DHT22;847;48.058;7.810;2022-11-09T01:03:16;12.00;99.00
1700;DHT22;847;48.058;7.810;2022-11-09T01:05:43;12.00;99.00
1700;DHT22;847;48.058;7.810;2022-11-09T01:08:10;12.00;99.00
1700;DHT22;847;48.058;7.810;2022-11-09T01:10:39;12.00;99.00
1700;DHT22;847;48.058;7.810;2022-11-09T01:13:07;12.10;99.00
1700;DHT22;847;48.058;7.810;2022-11-09T01:15:39;12.10;99.00
1700;DHT22;847;48.058;7.810;2022-11-09T01:18:06;12.10;99.00
1700;DHT22;847;48.058;7.810;2022-11-09T01:20:33;12.10;99.00
1700;DHT22;847;48.058;7.810;2022-11-09T01:22:59;12.10;99.00
1700;DHT22;847;48.058;7.810;2022-11-09T01:25:26;12.20;99.00
1700;DHT22;847;48.058;7.810;2022-11-09T01:27:53;12.20;99.00
1700;DHT22;847;48.058;7.810;2022-11-09T01:30:20;12.20;99.00
1700;DHT22;847;48.058;7.810;2022-11-09T01:32:48;12.20;99.00
1700;DHT22;847;48.058;7.810;2022-11-09T01:35:15;12.30;99.00
1700;DHT22;847;48.058;7.810;2022-11-09T01:37:42;12.30;99.00
1700;DHT22;847;48.058;7.810;2022-11-09T01:40:09;12.30;99.00
1700;DHT22;847;48.058;7.810;2022-11-09T01:42:37;12.20;99.00
1700;DHT22;847;48.058;7.810;2022-11-09T01:45:28;12.20;99.00
1700;DHT22;847;48.058;7.810;2022-11-09T01:48:02;12.20;99.00
1700;DHT22;847;48.058;7.810;2022-11-09T01:50:35;12.20;99.00
1700;DHT22;847;48.058;7.810;2022-11-09T01:53:05;12.20;99.00
1700;DHT22;847;48.058;7.810;2022-11-09T01:55:34;12.20;99.00
1700;DHT22;847;48.058;7.810;2022-11-09T01:58:05;12.20;99.00
1700;DHT22;847;48.058;7.810;2022-11-09T02:00:34;12.10;99.00
1700;DHT22;847;48.058;7.810;2022-11-09T02:03:08;12.10;99.00
1700;DHT22;847;48.058;7.810;2022-11-09T02:05:36;12.10;99.00
1700;DHT22;847;48.058;7.810;2022-11-09T02:08:06;12.10;99.00
1700;DHT22;847;48.058;7.810;2022-11-09T02:10:37;12.10;99.00
1700;DHT22;847;48.058;7.810;2022-11-09T02:13:08;12.10;99.00
1700;DHT22;847;48.058;7.810;2022-11-09T02:15:35;12.10;99.00
1700;DHT22;847;48.058;7.810;2022-11-09T02:18:04;12.10;99.00
1700;DHT22;847;48.058;7.810;2022-11-09T02:20:44;12.10;99.00
1700;DHT22;847;48.058;7.810;2022-11-09T02:23:11;12.10;99.00
1700;DHT22;847;48.058;7.810;2022-11-09T02:25:42;12.10;99.00
1700;DHT22;847;48.058;7.810;2022-11-09T02:28:11;12.10;99.00
1700;DHT22;847;48.058;7.810;2022-11-09T02:30:39;12.10;99.00
1700;DHT22;847;48.058;7.810;2022-11-09T02:33:05;12.10;99.00
1700;DHT22;847;48.058;7.810;2022-11-09T02:35:32;12.10;99.00
1700;DHT22;847;48.058;7.810;2022-11-09T02:38:00;12.10;99.00
1700;DHT22;847;48.058;7.810;2022-11-09T02:40:30;12.10;99.00
1700;DHT22;847;48.058;7.810;2022-11-09T02:42:58;12.10;99.00
1700;DHT22;847;48.058;7.810;2022-11-09T02:45:26;12.10;99.00
1700;DHT22;847;48.058;7.810;2022-11-09T02:47:53;12.00;99.00
1700;DHT22;847;48.058;7.810;2022-11-09T02:50:19;12.10;99.00
1700;DHT22;847;48.058;7.810;2022-11-09T02:52:46;12.00;99.00
1700;DHT22;847;48.058;7.810;2022-11-09T02:55:15;12.00;99.00
1700;DHT22;847;48.058;7.810;2022-11-09T02:57:41;12.00;99.00
1700;DHT22;847;48.058;7.810;2022-11-09T03:00:09;12.00;99.00
1700;DHT22;847;48.058;7.810;2022-11-09T03:02:39;12.00;99.00
1700;DHT22;847;48.058;7.810;2022-11-09T03:05:07;12.00;99.00
1700;DHT22;847;48.058;7.810;2022-11-09T03:07:34;12.10;99.00
1700;DHT22;847;48.058;7.810;2022-11-09T03:10:00;12.10;99.00
1700;DHT22;847;48.058;7.810;2022-11-09T03:12:29;12.10;99.00
1700;DHT22;847;48.058;7.810;2022-11-09T03:14:56;12.10;99.00
1700;DHT22;847;48.058;7.810;2022-11-09T03:17:23;12.10;99.00
1700;DHT22;847;48.058;7.810;2022-11-09T03:19:50;12.10;99.00
1700;DHT22;847;48.058;7.810;2022-11-09T03:22:17;12.00;99.00
1700;DHT22;847;48.058;7.810;2022-11-09T03:24:44;12.00;99.00
1700;DHT22;847;48.058;7.810;2022-11-09T03:27:12;12.00;99.00
1700;DHT22;847;48.058;7.810;2022-11-09T03:29:40;12.00;99.00
1700;DHT22;847;48.058;7.810;2022-11-09T03:32:07;12.10;99.00
1700;DHT22;847;48.058;7.810;2022-11-09T03:34:33;12.10;99.00
1700;DHT22;847;48.058;7.810;2022-11-09T03:37:00;12.10;99.00
1700;DHT22;847;48.058;7.810;2022-11-09T03:39:27;12.10;99.00
1700;DHT22;847;48.058;7.810;2022-11-09T03:41:53;12.10;99.00
1700;DHT22;847;48.058;7.810;2022-11-09T03:44:20;12.20;99.00
1700;DHT22;847;48.058;7.810;2022-11-09T03:46:48;12.20;99.00
1700;DHT22;847;48.058;7.810;2022-11-09T03:49:15;12.30;99.00
1700;DHT22;847;48.058;7.810;2022-11-09T03:51:42;12.40;99.00
1700;DHT22;847;48.058;7.810;2022-11-09T03:54:09;12.50;99.00
1700;DHT22;847;48.058;7.810;2022-11-09T03:56:35;12.50;99.00
1700;DHT22;847;48.058;7.810;2022-11-09T03:59:02;12.60;99.00
1700;DHT22;847;48.058;7.810;2022-11-09T04:01:29;12.60;99.00
1700;DHT22;847;48.058;7.810;2022-11-09T04:03:57;12.60;99.00
1700;DHT22;847;48.058;7.810;2022-11-09T04:06:24;12.70;99.00
1700;DHT22;847;48.058;7.810;2022-11-09T04:08:51;12.70;99.00
1700;DHT22;847;48.058;7.810;2022-11-09T04:11:18;12.70;99.00
1700;DHT22;847;48.058;7.810;2022-11-09T04:13:44;12.70;99.00
1700;DHT22;847;48.058;7.810;2022-11-09T04:16:11;12.80;99.00
1700;DHT22;847;48.058;7.810;2022-11-09T04:18:38;12.80;99.00
1700;DHT22;847;48.058;7.810;2022-11-09T04:21:07;12.90;99.00
1700;DHT22;847;48.058;7.810;2022-11-09T04:23:33;12.90;99.00
1700;DHT22;847;48.058;7.810;2022-11-09T04:26:00;13.00;99.00
1700;DHT22;847;48.058;7.810;2022-11-09T04:28:27;13.00;99.00
1700;DHT22;847;48.058;7.810;2022-11-09T04:30:54;13.00;99.00
1700;DHT22;847;48.058;7.810;2022-11-09T04:33:25;13.00;99.00
1700;DHT22;847;48.058;7.810;2022-11-09T04:35:51;13.00;99.00
1700;DHT22;847;48.058;7.810;2022-11-09T04:38:20;13.00;99.00
1700;DHT22;847;48.058;7.810;2022-11-09T04:40:46;13.10;99.00
1700;DHT22;847;48.058;7.810;2022-11-09T04:43:13;13.10;99.00
1700;DHT22;847;48.058;7.810;2022-11-09T04:45:40;13.10;99.00
1700;DHT22;847;48.058;7.810;2022-11-09T04:48:09;13.10;99.00
1700;DHT22;847;48.058;7.810;2022-11-09T04:50:36;13.10;99.00
1700;DHT22;847;48.058;7.810;2022-11-09T04:53:08;13.10;99.00
1700;DHT22;847;48.058;7.810;2022-11-09T04:55:36;13.10;99.00
1700;DHT22;847;48.058;7.810;2022-11-09T04:58:03;13.20;99.00
1700;DHT22;847;48.058;7.810;2022-11-09T05:00:30;13.20;99.00
1700;DHT22;847;48.058;7.810;2022-11-09T05:03:00;13.20;99.00
1700;DHT22;847;48.058;7.810;2022-11-09T05:05:27;13.20;99.00
1700;DHT22;847;48.058;7.810;2022-11-09T05:07:54;13.30;99.00
1700;DHT22;847;48.058;7.810;2022-11-09T05:10:21;13.30;99.00
1700;DHT22;847;48.058;7.810;2022-11-09T05:12:49;13.30;99.00
1700;DHT22;847;48.058;7.810;2022-11-09T05:15:22;13.20;99.00
1700;DHT22;847;48.058;7.810;2022-11-09T05:17:49;13.20;99.00
1700;DHT22;847;48.058;7.810;2022-11-09T05:20:16;13.20;99.00
1700;DHT22;847;48.058;7.810;2022-11-09T05:22:42;13.30;99.00
1700;DHT22;847;48.058;7.810;2022-11-09T05:25:26;13.30;99.00
1700;DHT22;847;48.058;7.810;2022-11-09T05:27:54;13.30;99.00
1700;DHT22;847;48.058;7.810;2022-11-09T05:30:21;13.30;99.00
1700;DHT22;847;48.058;7.810;2022-11-09T05:32:48;13.30;99.00
1700;DHT22;847;48.058;7.810;2022-11-09T05:35:15;13.30;99.00
1700;DHT22;847;48.058;7.810;2022-11-09T05:37:45;13.30;99.00
1700;DHT22;847;48.058;7.810;2022-11-09T05:40:13;13.20;99.00
1700;DHT22;847;48.058;7.810;2022-11-09T05:42:40;13.20;99.00
1700;DHT22;847;48.058;7.810;2022-11-09T05:45:10;13.20;99.00
1700;DHT22;847;48.058;7.810;2022-11-09T05:47:37;13.20;99.00
1700;DHT22;847;48.058;7.810;2022-11-09T05:50:06;13.20;99.00
1700;DHT22;847;48.058;7.810;2022-11-09T05:52:33;13.20;99.00
1700;DHT22;847;48.058;7.810;2022-11-09T05:55:00;13.20;99.00
1700;DHT22;847;48.058;7.810;2022-11-09T05:57:27;13.20;99.00
1700;DHT22;847;48.058;7.810;2022-11-09T05:59:54;13.20;99.00
1700;DHT22;847;48.058;7.810;2022-11-09T06:02:22;13.20;99.00
1700;DHT22;847;48.058;7.810;2022-11-09T06:04:49;13.20;99.00
1700;DHT22;847;48.058;7.810;2022-11-09T06:07:15;13.20;99.00
1700;DHT22;847;48.058;7.810;2022-11-09T06:09:42;13.20;99.00
1700;DHT22;847;48.058;7.810;2022-11-09T06:12:09;13.20;99.00
1700;DHT22;847;48.058;7.810;2022-11-09T06:14:36;13.20;99.00
1700;DHT22;847;48.058;7.810;2022-11-09T06:17:02;13.20;99.00
1700;DHT22;847;48.058;7.810;2022-11-09T06:19:30;13.20;99.00
1700;DHT22;847;48.058;7.810;2022-11-09T06:21:57;13.20;99.00
1700;DHT22;847;48.058;7.810;2022-11-09T06:24:24;13.20;99.00
1700;DHT22;847;48.058;7.810;2022-11-09T06:26:51;13.20;99.00
1700;DHT22;847;48.058;7.810;2022-11-09T06:29:17;13.20;99.00
1700;DHT22;847;48.058;7.810;2022-11-09T06:31:45;13.20;99.00
1700;DHT22;847;48.058;7.810;2022-11-09T06:34:13;13.30;99.00
1700;DHT22;847;48.058;7.810;2022-11-09T06:36:41;13.30;99.00
1700;DHT22;847;48.058;7.810;2022-11-09T06:39:08;13.30;99.00
1700;DHT22;847;48.058;7.810;2022-11-09T06:41:35;13.30;99.00
1700;DHT22;847;48.058;7.810;2022-11-09T06:44:02;13.40;99.00
1700;DHT22;847;48.058;7.810;2022-11-09T06:46:29;13.40;99.00
1700;DHT22;847;48.058;7.810;2022-11-09T06:48:56;13.40;99.00
1700;DHT22;847;48.058;7.810;2022-11-09T06:51:23;13.40;99.00
1700;DHT22;847;48.058;7.810;2022-11-09T06:53:51;13.50;99.00
1700;DHT22;847;48.058;7.810;2022-11-09T06:56:18;13.50;99.00
1700;DHT22;847;48.058;7.810;2022-11-09T06:58:45;13.50;99.00
1700;DHT22;847;48.058;7.810;2022-11-09T07:01:14;13.60;99.00
1700;DHT22;847;48.058;7.810;2022-11-09T07:03:42;13.70;99.00
1700;DHT22;847;48.058;7.810;2022-11-09T07:06:10;13.70;99.00
1700;DHT22;847;48.058;7.810;2022-11-09T07:08:39;13.70;99.00
1700;DHT22;847;48.058;7.810;2022-11-09T07:11:09;13.50;99.00
1700;DHT22;847;48.058;7.810;2022-11-09T07:13:36;13.50;99.00
1700;DHT22;847;48.058;7.810;2022-11-09T07:16:03;13.40;99.00
1700;DHT22;847;48.058;7.810;2022-11-09T07:18:30;13.30;99.00
1700;DHT22;847;48.058;7.810;2022-11-09T07:20:57;13.30;99.00
1700;DHT22;847;48.058;7.810;2022-11-09T07:23:24;13.30;99.00
1700;DHT22;847;48.058;7.810;2022-11-09T07:25:51;13.20;99.00
1700;DHT22;847;48.058;7.810;2022-11-09T07:28:19;13.20;99.00
1700;DHT22;847;48.058;7.810;2022-11-09T07:30:46;13.20;99.00
1700;DHT22;847;48.058;7.810;2022-11-09T07:33:16;13.10;99.00
1700;DHT22;847;48.058;7.810;2022-11-09T07:35:44;13.10;99.00
1700;DHT22;847;48.058;7.810;2022-11-09T07:38:11;13.10;99.00
1700;DHT22;847;48.058;7.810;2022-11-09T07:40:40;13.20;99.00
1700;DHT22;847;48.058;7.810;2022-11-09T07:43:07;13.20;99.00
1700;DHT22;847;48.058;7.810;2022-11-09T07:45:35;13.20;99.00
1700;DHT22;847;48.058;7.810;2022-11-09T07:48:03;13.20;99.00
1700;DHT22;847;48.058;7.810;2022-11-09T07:50:32;13.20;99.00
1700;DHT22;847;48.058;7.810;2022-11-09T07:53:00;13.20;99.00
1700;DHT22;847;48.058;7.810;2022-11-09T07:55:28;13.20;99.00
1700;DHT22;847;48.058;7.810;2022-11-09T07:57:55;13.20;99.00
1700;DHT22;847;48.058;7.810;2022-11-09T08:00:23;13.20;99.00
1700;DHT22;847;48.058;7.810;2022-11-09T08:02:51;13.30;99.00
1700;DHT22;847;48.058;7.810;2022-11-09T08:05:18;13.30;99.00
1700;DHT22;847;48.058;7.810;2022-11-09T08:07:45;13.30;99.00
1700;DHT22;847;48.058;7.810;2022-11-09T08:10:12;13.30;99.00
1700;DHT22;847;48.058;7.810;2022-11-09T08:12:39;13.40;99.00
1700;DHT22;847;48.058;7.810;2022-11-09T08:15:07;13.40;99.00
1700;DHT22;847;48.058;7.810;2022-11-09T08:17:34;13.40;99.00
1700;DHT22;847;48.058;7.810;2022-11-09T08:20:02;13.40;99.00
1700;DHT22;847;48.058;7.810;2022-11-09T08:22:29;13.40;99.00
1700;DHT22;847;48.058;7.810;2022-11-09T08:24:59;13.50;99.00
1700;DHT22;847;48.058;7.810;2022-11-09T08:27:29;13.50;99.00
1700;DHT22;847;48.058;7.810;2022-11-09T08:29:55;13.50;99.00
1700;DHT22;847;48.058;7.810;2022-11-09T08:32:22;13.50;99.00
1700;DHT22;847;48.058;7.810;2022-11-09T08:34:49;13.50;99.00
1700;DHT22;847;48.058;7.810;2022-11-09T08:37:17;13.60;99.00
1700;DHT22;847;48.058;7.810;2022-11-09T08:39:44;13.60;99.00
1700;DHT22;847;48.058;7.810;2022-11-09T08:42:11;13.70;99.00
1700;DHT22;847;48.058;7.810;2022-11-09T08:44:37;13.70;99.00
1700;DHT22;847;48.058;7.810;2022-11-09T08:47:04;13.80;99.00
1700;DHT22;847;48.058;7.810;2022-11-09T08:49:31;13.80;99.00
1700;DHT22;847;48.058;7.810;2022-11-09T08:51:58;13.80;99.00
1700;DHT22;847;48.058;7.810;2022-11-09T08:54:27;13.90;99.00
1700;DHT22;847;48.058;7.810;2022-11-09T08:56:54;13.90;99.00
1700;DHT22;847;48.058;7.810;2022-11-09T08:59:21;14.00;99.00
1700;DHT22;847;48.058;7.810;2022-11-09T09:01:48;14.00;99.00
1700;DHT22;847;48.058;7.810;2022-11-09T09:04:15;14.10;99.00
1700;DHT22;847;48.058;7.810;2022-11-09T09:06:42;14.10;99.00
1700;DHT22;847;48.058;7.810;2022-11-09T09:09:09;14.20;99.00
1700;DHT22;847;48.058;7.810;2022-11-09T09:11:37;14.20;99.00
1700;DHT22;847;48.058;7.810;2022-11-09T09:14:04;14.20;99.00
1700;DHT22;847;48.058;7.810;2022-11-09T09:16:32;14.30;99.00
1700;DHT22;847;48.058;7.810;2022-11-09T09:18:59;14.30;99.00
1700;DHT22;847;48.058;7.810;2022-11-09T09:21:26;14.40;99.00
1700;DHT22;847;48.058;7.810;2022-11-09T09:23:53;14.50;99.00
1700;DHT22;847;48.058;7.810;2022-11-09T09:26:21;14.50;99.00
1700;DHT22;847;48.058;7.810;2022-11-09T09:28:50;14.60;99.00
1700;DHT22;847;48.058;7.810;2022-11-09T09:31:17;14.60;99.00
1700;DHT22;847;48.058;7.810;2022-11-09T09:33:43;14.60;99.00
1700;DHT22;847;48.058;7.810;2022-11-09T09:36:15;14.70;99.00
1700;DHT22;847;48.058;7.810;2022-11-09T09:38:43;14.70;99.00
1700;DHT22;847;48.058;7.810;2022-11-09T09:41:16;14.80;99.00
1700;DHT22;847;48.058;7.810;2022-11-09T09:43:46;14.80;99.00
1700;DHT22;847;48.058;7.810;2022-11-09T09:46:19;14.80;99.00
1700;DHT22;847;48.058;7.810;2022-11-09T09:48:52;14.80;99.00
1700;DHT22;847;48.058;7.810;2022-11-09T09:51:28;14.80;99.00
1700;DHT22;847;48.058;7.810;2022-11-09T09:54:01;14.90;99.00
1700;DHT22;847;48.058;7.810;2022-11-09T09:56:31;14.90;99.00
1700;DHT22;847;48.058;7.810;2022-11-09T09:59:04;14.90;99.00
1700;DHT22;847;48.058;7.810;2022-11-09T10:01:36;14.90;99.00
1700;DHT22;847;48.058;7.810;2022-11-09T10:04:13;14.90;99.00
1700;DHT22;847;48.058;7.810;2022-11-09T10:06:49;14.90;99.00
1700;DHT22;847;48.058;7.810;2022-11-09T10:09:31;14.90;99.00
1700;DHT22;847;48.058;7.810;2022-11-09T10:12:07;15.00;99.00
1700;DHT22;847;48.058;7.810;2022-11-09T10:15:04;15.00;99.00
1700;DHT22;847;48.058;7.810;2022-11-09T10:17:39;15.00;99.00
1700;DHT22;847;48.058;7.810;2022-11-09T10:20:22;15.00;99.00
1700;DHT22;847;48.058;7.810;2022-11-09T10:22:58;15.00;99.00
1700;DHT22;847;48.058;7.810;2022-11-09T10:25:31;15.00;99.00
1700;DHT22;847;48.058;7.810;2022-11-09T10:28:01;15.00;99.00
1700;DHT22;847;48.058;7.810;2022-11-09T10:30:29;15.00;99.00
1700;DHT22;847;48.058;7.810;2022-11-09T10:33:02;15.00;99.00
1700;DHT22;847;48.058;7.810;2022-11-09T10:35:34;15.00;99.00
1700;DHT22;847;48.058;7.810;2022-11-09T10:38:03;15.00;99.00
1700;DHT22;847;48.058;7.810;2022-11-09T10:40:34;15.50;99.00
1700;DHT22;847;48.058;7.810;2022-11-09T10:43:08;15.70;99.00
1700;DHT22;847;48.058;7.810;2022-11-09T10:45:37;16.20;99.00
1700;DHT22;847;48.058;7.810;2022-11-09T10:48:07;16.40;99.00
1700;DHT22;847;48.058;7.810;2022-11-09T10:50:37;16.70;99.00
1700;DHT22;847;48.058;7.810;2022-11-09T10:53:12;16.80;99.00
1700;DHT22;847;48.058;7.810;2022-11-09T10:55:49;17.00;99.00
1700;DHT22;847;48.058;7.810;2022-11-09T10:58:26;17.10;99.00
1700;DHT22;847;48.058;7.810;2022-11-09T11:00:59;17.40;99.00
1700;DHT22;847;48.058;7.810;2022-11-09T11:03:29;17.50;99.00
1700;DHT22;847;48.058;7.810;2022-11-09T11:05:58;17.80;99.00
1700;DHT22;847;48.058;7.810;2022-11-09T11:08:32;17.80;99.00
1700;DHT22;847;48.058;7.810;2022-11-09T11:11:09;17.90;99.00
1700;DHT22;847;48.058;7.810;2022-11-09T11:13:39;17.80;99.00
1700;DHT22;847;48.058;7.810;2022-11-09T11:16:25;17.70;99.00
1700;DHT22;847;48.058;7.810;2022-11-09T11:18:54;17.80;98.60
1700;DHT22;847;48.058;7.810;2022-11-09T11:21:23;18.00;99.00
1700;DHT22;847;48.058;7.810;2022-11-09T11:24:13;18.20;99.00
1700;DHT22;847;48.058;7.810;2022-11-09T11:26:47;18.00;98.80
1700;DHT22;847;48.058;7.810;2022-11-09T11:29:32;17.80;98.70
1700;DHT22;847;48.058;7.810;2022-11-09T11:32:01;17.70;99.00
1700;DHT22;847;48.058;7.810;2022-11-09T11:34:36;17.60;99.00
1700;DHT22;847;48.058;7.810;2022-11-09T11:37:13;17.60;99.00
1700;DHT22;847;48.058;7.810;2022-11-09T11:39:55;17.50;99.00
1700;DHT22;847;48.058;7.810;2022-11-09T11:42:45;17.50;99.00
1700;DHT22;847;48.058;7.810;2022-11-09T11:45:16;17.40;99.00
1700;DHT22;847;48.058;7.810;2022-11-09T11:47:54;17.40;99.00
1700;DHT22;847;48.058;7.810;2022-11-09T11:50:29;17.40;99.00
1700;DHT22;847;48.058;7.810;2022-11-09T11:53:07;17.20;99.00
1700;DHT22;847;48.058;7.810;2022-11-09T11:56:03;17.10;99.00
1700;DHT22;847;48.058;7.810;2022-11-09T11:58:44;17.20;99.00
1700;DHT22;847;48.058;7.810;2022-11-09T12:01:29;17.30;99.00
1700;DHT22;847;48.058;7.810;2022-11-09T12:04:13;17.40;99.00
1700;DHT22;847;48.058;7.810;2022-11-09T12:06:56;17.50;99.00
1700;DHT22;847;48.058;7.810;2022-11-09T12:09:34;17.50;99.00
1700;DHT22;847;48.058;7.810;2022-11-09T12:12:12;17.70;99.00
1700;DHT22;847;48.058;7.810;2022-11-09T12:14:48;17.70;99.00
1700;DHT22;847;48.058;7.810;2022-11-09T12:17:25;17.70;99.00
1700;DHT22;847;48.058;7.810;2022-11-09T12:20:13;17.70;99.00
1700;DHT22;847;48.058;7.810;2022-11-09T12:22:51;17.70;99.00
1700;DHT22;847;48.058;7.810;2022-11-09T12:25:24;17.70;99.00
1700;DHT22;847;48.058;7.810;2022-11-09T12:28:05;17.70;99.00
1700;DHT22;847;48.058;7.810;2022-11-09T12:30:52;17.40;99.00
1700;DHT22;847;48.058;7.810;2022-11-09T12:33:25;17.30;99.00
1700;DHT22;847;48.058;7.810;2022-11-09T12:35:56;17.20;99.00
1700;DHT22;847;48.058;7.810;2022-11-09T12:38:30;17.00;99.00
1700;DHT22;847;48.058;7.810;2022-11-09T12:41:01;16.80;99.00
1700;DHT22;847;48.058;7.810;2022-11-09T12:43:40;16.90;99.00
1700;DHT22;847;48.058;7.810;2022-11-09T12:46:10;16.80;99.00
1700;DHT22;847;48.058;7.810;2022-11-09T12:48:39;16.60;99.00
1700;DHT22;847;48.058;7.810;2022-11-09T12:51:07;16.70;99.00
1700;DHT22;847;48.058;7.810;2022-11-09T12:53:36;16.90;99.00
1700;DHT22;847;48.058;7.810;2022-11-09T12:56:07;16.90;99.00
1700;DHT22;847;48.058;7.810;2022-11-09T12:58:35;17.00;99.00
1700;DHT22;847;48.058;7.810;2022-11-09T13:01:05;17.00;99.00
1700;DHT22;847;48.058;7.810;2022-11-09T13:03:34;17.00;99.00
1700;DHT22;847;48.058;7.810;2022-11-09T13:06:14;17.00;99.00
1700;DHT22;847;48.058;7.810;2022-11-09T13:08:54;16.90;99.00
1700;DHT22;847;48.058;7.810;2022-11-09T13:11:32;16.80;99.00
1700;DHT22;847;48.058;7.810;2022-11-09T13:14:36;16.70;99.00
1700;DHT22;847;48.058;7.810;2022-11-09T13:20:39;16.60;99.00
1700;DHT22;847;48.058;7.810;2022-11-09T13:23:27;16.60;99.00
1700;DHT22;847;48.058;7.810;2022-11-09T13:25:55;16.50;99.00
1700;DHT22;847;48.058;7.810;2022-11-09T13:28:48;16.50;99.00
1700;DHT22;847;48.058;7.810;2022-11-09T13:32:00;16.50;99.00
1700;DHT22;847;48.058;7.810;2022-11-09T13:34:44;16.60;99.00
1700;DHT22;847;48.058;7.810;2022-11-09T13:37:33;16.70;99.00
1700;DHT22;847;48.058;7.810;2022-11-09T13:40:00;16.60;99.00
1700;DHT22;847;48.058;7.810;2022-11-09T13:42:30;16.50;99.00
1700;DHT22;847;48.058;7.810;2022-11-09T13:45:25;16.40;99.00
1700;DHT22;847;48.058;7.810;2022-11-09T13:47:52;16.30;99.00
1700;DHT22;847;48.058;7.810;2022-11-09T13:50:21;16.40;99.00
1700;DHT22;847;48.058;7.810;2022-11-09T13:52:49;16.30;99.00
1700;DHT22;847;48.058;7.810;2022-11-09T13:55:24;16.20;99.00
1700;DHT22;847;48.058;7.810;2022-11-09T13:57:53;16.20;99.00
1700;DHT22;847;48.058;7.810;2022-11-09T14:00:23;16.20;99.00
1700;DHT22;847;48.058;7.810;2022-11-09T14:02:55;16.20;99.00
1700;DHT22;847;48.058;7.810;2022-11-09T14:05:24;16.20;99.00
1700;DHT22;847;48.058;7.810;2022-11-09T14:07:52;16.10;99.00
1700;DHT22;847;48.058;7.810;2022-11-09T14:10:39;16.10;99.00
1700;DHT22;847;48.058;7.810;2022-11-09T14:13:27;16.10;99.00
1700;DHT22;847;48.058;7.810;2022-11-09T14:16:01;16.10;99.00
1700;DHT22;847;48.058;7.810;2022-11-09T14:18:38;16.10;99.00
1700;DHT22;847;48.058;7.810;2022-11-09T14:21:16;15.90;99.00
1700;DHT22;847;48.058;7.810;2022-11-09T14:23:47;15.70;99.00
1700;DHT22;847;48.058;7.810;2022-11-09T14:26:22;15.60;99.00
1700;DHT22;847;48.058;7.810;2022-11-09T14:28:50;15.50;99.00
1700;DHT22;847;48.058;7.810;2022-11-09T14:31:24;15.40;99.00
1700;DHT22;847;48.058;7.810;2022-11-09T14:33:58;15.30;99.00
1700;DHT22;847;48.058;7.810;2022-11-09T14:36:27;15.30;99.00
1700;DHT22;847;48.058;7.810;2022-11-09T14:38:54;15.30;99.00
1700;DHT22;847;48.058;7.810;2022-11-09T14:41:24;15.40;99.00
1700;DHT22;847;48.058;7.810;2022-11-09T14:43:54;15.40;99.00
1700;DHT22;847;48.058;7.810;2022-11-09T14:46:25;15.50;99.00
1700;DHT22;847;48.058;7.810;2022-11-09T14:48:55;15.50;99.00
1700;DHT22;847;48.058;7.810;2022-11-09T14:51:29;15.50;99.00
1700;DHT22;847;48.058;7.810;2022-11-09T14:53:58;15.50;99.00
1700;DHT22;847;48.058;7.810;2022-11-09T14:56:26;15.40;99.00
1700;DHT22;847;48.058;7.810;2022-11-09T14:58:56;15.40;99.00
1700;DHT22;847;48.058;7.810;2022-11-09T15:01:24;15.50;99.00
1700;DHT22;847;48.058;7.810;2022-11-09T15:04:11;15.40;99.00
1700;DHT22;847;48.058;7.810;2022-11-09T15:06:44;15.40;99.00
1700;DHT22;847;48.058;7.810;2022-11-09T15:09:15;15.40;99.00
1700;DHT22;847;48.058;7.810;2022-11-09T15:11:43;15.30;99.00
1700;DHT22;847;48.058;7.810;2022-11-09T15:14:14;15.30;99.00
1700;DHT22;847;48.058;7.810;2022-11-09T15:16:47;15.30;99.00
1700;DHT22;847;48.058;7.810;2022-11-09T15:19:22;15.20;99.00
1700;DHT22;847;48.058;7.810;2022-11-09T15:21:49;15.20;99.00
1700;DHT22;847;48.058;7.810;2022-11-09T15:24:17;15.20;99.00
1700;DHT22;847;48.058;7.810;2022-11-09T15:26:46;15.10;99.00
1700;DHT22;847;48.058;7.810;2022-11-09T15:29:37;15.10;99.00
1700;DHT22;847;48.058;7.810;2022-11-09T15:32:13;15.10;99.00
1700;DHT22;847;48.058;7.810;2022-11-09T15:34:42;15.10;99.00
1700;DHT22;847;48.058;7.810;2022-11-09T15:37:21;15.10;99.00
1700;DHT22;847;48.058;7.810;2022-11-09T15:39:49;15.00;99.00
1700;DHT22;847;48.058;7.810;2022-11-09T15:42:16;15.00;99.00
1700;DHT22;847;48.058;7.810;2022-11-09T15:44:44;15.00;99.00
1700;DHT22;847;48.058;7.810;2022-11-09T15:47:19;14.90;99.00
1700;DHT22;847;48.058;7.810;2022-11-09T15:49:46;15.00;99.00
1700;DHT22;847;48.058;7.810;2022-11-09T15:52:13;14.90;99.00
1700;DHT22;847;48.058;7.810;2022-11-09T15:54:40;14.90;99.00
1700;DHT22;847;48.058;7.810;2022-11-09T15:57:13;14.90;99.00
1700;DHT22;847;48.058;7.810;2022-11-09T15:59:41;14.90;99.00
1700;DHT22;847;48.058;7.810;2022-11-09T16:02:10;14.90;99.00
1700;DHT22;847;48.058;7.810;2022-11-09T16:04:38;14.90;99.00
1700;DHT22;847;48.058;7.810;2022-11-09T16:07:05;15.00;99.00
1700;DHT22;847;48.058;7.810;2022-11-09T16:09:32;14.90;99.00
1700;DHT22;847;48.058;7.810;2022-11-09T16:11:59;14.90;99.00
1700;DHT22;847;48.058;7.810;2022-11-09T16:14:30;14.90;99.00
1700;DHT22;847;48.058;7.810;2022-11-09T16:16:57;14.90;99.00
1700;DHT22;847;48.058;7.810;2022-11-09T16:19:25;15.00;99.00
1700;DHT22;847;48.058;7.810;2022-11-09T16:21:52;14.90;99.00
1700;DHT22;847;48.058;7.810;2022-11-09T16:24:19;14.90;99.00
1700;DHT22;847;48.058;7.810;2022-11-09T16:26:46;14.90;99.00
1700;DHT22;847;48.058;7.810;2022-11-09T16:29:13;14.80;99.00
1700;DHT22;847;48.058;7.810;2022-11-09T16:31:39;14.80;99.00
1700;DHT22;847;48.058;7.810;2022-11-09T16:34:06;14.80;99.00
1700;DHT22;847;48.058;7.810;2022-11-09T16:36:34;14.80;99.00
1700;DHT22;847;48.058;7.810;2022-11-09T16:39:05;14.90;99.00
1700;DHT22;847;48.058;7.810;2022-11-09T16:41:37;14.80;99.00